Time;durP1;ratioP1;P1;durP2;ratioP2;P2;SDS_P1;SDS_P2;PMS_P1;PMS_P2;Temp;Humidity;BMP_temperature;BMP_pressure;BME280_temperature;BME280_humidity;BME280_pressure;Samples;Min_cycle;Max_cycle;Signal;HPM_P1;HPM_P2
2022/08/27 00:01:53;;;;;;;11.30;4.63;;;21.30;91.10;;;;;;5000338;28;20062;-67
2022/08/27 00:04:18;;;;;;;7.43;3.72;;;21.30;91.20;;;;;;4999042;28;20034;-67
2022/08/27 00:06:44;;;;;;;8.05;4.40;;;21.30;91.20;;;;;;5005301;28;20137;-67
2022/08/27 00:09:10;;;;;;;9.00;4.65;;;21.20;91.20;;;;;;5048253;28;20507;-68
2022/08/27 00:11:35;;;;;;;8.00;4.40;;;21.30;91.20;;;;;;5027103;28;20104;-67
2022/08/27 00:14:02;;;;;;;11.30;4.30;;;21.20;91.20;;;;;;5044226;28;20148;-67
2022/08/27 00:16:27;;;;;;;12.00;4.18;;;21.20;91.20;;;;;;5038588;28;20032;-67
2022/08/27 00:18:54;;;;;;;8.82;4.80;;;21.20;91.60;;;;;;5035242;28;20033;-67
2022/08/27 00:21:21;;;;;;;8.50;4.47;;;21.20;91.20;;;;;;5040184;28;20029;-67
2022/08/27 00:23:47;;;;;;;5.47;4.35;;;21.20;91.30;;;;;;5031404;28;20071;-68
2022/08/27 00:26:14;;;;;;;6.18;4.25;;;21.20;91.30;;;;;;5021962;28;20022;-67
2022/08/27 00:28:40;;;;;;;6.47;4.40;;;21.20;91.30;;;;;;5041428;28;20398;-67
2022/08/27 00:31:06;;;;;;;6.60;4.45;;;21.20;91.30;;;;;;5043749;28;20059;-68
2022/08/27 00:33:32;;;;;;;8.98;4.35;;;21.20;91.30;;;;;;5044419;28;20021;-67
2022/08/27 00:35:58;;;;;;;7.80;4.00;;;21.20;91.30;;;;;;5041417;28;20042;-68
2022/08/27 00:38:24;;;;;;;8.00;3.80;;;21.20;91.30;;;;;;5044034;28;20126;-68
2022/08/27 00:40:51;;;;;;;6.28;4.03;;;21.20;91.30;;;;;;5043437;28;20029;-68
2022/08/27 00:43:30;;;;;;;5.65;3.92;;;21.20;91.30;;;;;;5040572;28;20017;-67
2022/08/27 00:46:02;;;;;;;11.60;4.47;;;21.20;91.40;;;;;;5041352;28;20029;-67
2022/08/27 00:48:31;;;;;;;6.57;3.67;;;21.20;91.40;;;;;;5034712;28;20029;-67
2022/08/27 00:50:57;;;;;;;7.22;3.63;;;21.20;91.40;;;;;;5041930;28;20067;-68
2022/08/27 00:53:28;;;;;;;5.90;3.50;;;21.20;91.40;;;;;;5045395;28;20061;-67
2022/08/27 00:56:14;;;;;;;9.15;4.18;;;21.20;91.40;;;;;;5042069;28;20037;-67
2022/08/27 00:58:47;;;;;;;14.32;4.50;;;21.20;91.40;;;;;;5039923;28;20025;-68
2022/08/27 01:01:17;;;;;;;8.75;4.45;;;21.20;91.40;;;;;;5048521;28;20069;-67
2022/08/27 01:03:46;;;;;;;7.97;3.83;;;21.20;91.40;;;;;;5040053;28;20072;-67
2022/08/27 01:06:14;;;;;;;9.20;3.67;;;21.20;91.40;;;;;;5040838;28;20544;-67
2022/08/27 01:08:43;;;;;;;10.07;3.95;;;21.20;91.40;;;;;;5043498;28;20021;-68
2022/08/27 01:11:09;;;;;;;7.40;4.07;;;21.10;91.40;;;;;;5039595;28;20551;-67
2022/08/27 01:13:37;;;;;;;8.63;4.20;;;21.10;91.40;;;;;;5022765;28;20052;-67
2022/08/27 01:16:04;;;;;;;10.25;4.25;;;21.10;91.40;;;;;;5027594;28;20030;-68
2022/08/27 01:18:33;;;;;;;8.27;4.05;;;21.10;91.40;;;;;;5021565;28;20517;-68
2022/08/27 01:21:34;;;;;;;6.95;4.25;;;21.10;91.40;;;;;;5040376;28;20040;-69
2022/08/27 01:24:13;;;;;;;8.40;4.13;;;21.10;91.40;;;;;;5009109;28;20042;-68
2022/08/27 01:26:40;;;;;;;12.32;4.07;;;21.10;91.40;;;;;;4975251;28;20042;-68
2022/08/27 01:29:06;;;;;;;5.35;3.78;;;21.10;91.50;;;;;;4992108;28;20063;-67
2022/08/27 01:31:32;;;;;;;6.68;4.40;;;21.10;91.50;;;;;;5008506;28;20037;-67
2022/08/27 01:34:01;;;;;;;6.35;3.22;;;21.10;91.50;;;;;;4989773;28;20035;-67
2022/08/27 01:36:27;;;;;;;9.40;3.83;;;21.10;91.50;;;;;;4987803;28;20113;-67
2022/08/27 01:38:53;;;;;;;7.63;4.10;;;21.10;91.50;;;;;;5004964;28;20037;-67
2022/08/27 01:41:20;;;;;;;6.03;3.70;;;21.10;91.50;;;;;;5008379;28;20077;-67
2022/08/27 01:43:47;;;;;;;8.80;3.90;;;21.10;91.50;;;;;;5008804;28;20032;-67
2022/08/27 01:46:12;;;;;;;11.13;3.78;;;21.10;91.50;;;;;;5007138;28;20034;-67
2022/08/27 01:48:38;;;;;;;8.95;3.97;;;21.10;91.50;;;;;;5008908;28;20534;-68
2022/08/27 01:51:04;;;;;;;5.95;4.32;;;21.10;91.50;;;;;;5008653;28;20165;-68
2022/08/27 01:53:29;;;;;;;5.57;4.10;;;21.10;91.50;;;;;;5007165;28;20109;-68
2022/08/27 01:55:56;;;;;;;6.22;3.90;;;21.10;91.50;;;;;;5007296;28;20025;-68
2022/08/27 01:58:29;;;;;;;7.25;4.55;;;21.10;91.90;;;;;;4992088;28;20029;-67
2022/08/27 02:01:02;;;;;;;8.05;3.35;;;21.10;91.50;;;;;;5039948;28;20041;-67
2022/08/27 02:03:28;;;;;;;9.63;3.90;;;21.10;91.90;;;;;;5038920;28;20044;-67
2022/08/27 02:05:53;;;;;;;7.80;4.43;;;21.10;91.60;;;;;;5024307;28;20033;-67
2022/08/27 02:08:19;;;;;;;7.30;4.55;;;21.00;91.50;;;;;;5040031;28;20183;-67
2022/08/27 02:10:46;;;;;;;9.23;4.25;;;21.00;91.60;;;;;;5042308;28;20033;-67
2022/08/27 02:13:12;;;;;;;8.57;3.67;;;21.00;91.90;;;;;;5040131;28;20025;-67
2022/08/27 02:15:40;;;;;;;6.55;4.18;;;21.00;91.60;;;;;;5025142;28;20036;-67
2022/08/27 02:18:07;;;;;;;8.40;4.20;;;21.00;91.60;;;;;;5041680;28;20163;-67
2022/08/27 02:20:33;;;;;;;7.32;3.97;;;21.00;91.60;;;;;;5041810;28;20078;-68
2022/08/27 02:22:59;;;;;;;8.55;4.57;;;21.00;91.60;;;;;;5041666;28;20040;-68
2022/08/27 02:25:27;;;;;;;5.72;3.78;;;21.00;91.60;;;;;;5046171;28;20033;-67
2022/08/27 02:27:53;;;;;;;6.88;3.90;;;21.00;91.60;;;;;;5034721;28;20036;-67
2022/08/27 02:30:23;;;;;;;6.90;3.55;;;21.00;91.60;;;;;;5039820;28;20025;-67
2022/08/27 02:33:16;;;;;;;9.45;4.03;;;21.00;91.60;;;;;;5016242;28;20038;-67
2022/08/27 02:36:08;;;;;;;5.90;4.10;;;21.00;91.60;;;;;;5034087;28;20026;-67
2022/08/27 02:38:40;;;;;;;9.68;4.70;;;21.00;91.70;;;;;;5032744;28;20029;-68
2022/08/27 02:41:06;;;;;;;6.60;3.95;;;21.00;91.70;;;;;;5028100;28;20033;-68
2022/08/27 02:43:31;;;;;;;11.10;3.97;;;21.00;91.70;;;;;;5041947;28;20025;-67
2022/08/27 02:45:57;;;;;;;5.68;4.22;;;21.00;91.70;;;;;;5023228;28;20341;-67
2022/08/27 02:48:24;;;;;;;8.23;4.28;;;21.00;91.70;;;;;;5039055;28;20074;-67
2022/08/27 02:50:53;;;;;;;8.07;4.03;;;21.00;91.70;;;;;;5038142;28;20475;-67
2022/08/27 02:53:19;;;;;;;5.22;4.05;;;21.00;91.70;;;;;;5042984;28;20036;-67
2022/08/27 02:55:45;;;;;;;5.10;3.45;;;21.00;91.70;;;;;;5022349;28;20033;-68
2022/08/27 02:58:15;;;;;;;11.57;5.13;;;20.90;91.70;;;;;;5020611;28;20033;-67
2022/08/27 03:00:41;;;;;;;13.38;4.20;;;21.00;91.80;;;;;;5041864;28;20021;-67
2022/08/27 03:03:09;;;;;;;5.65;3.90;;;21.00;91.80;;;;;;5035478;28;20053;-67
2022/08/27 03:05:44;;;;;;;6.90;4.47;;;20.90;91.70;;;;;;5036536;28;20151;-68
2022/08/27 03:08:10;;;;;;;8.00;4.47;;;20.90;91.70;;;;;;5033710;28;20091;-68
2022/08/27 03:10:36;;;;;;;6.30;4.20;;;20.90;91.80;;;;;;5041386;28;20067;-67
2022/08/27 03:13:01;;;;;;;8.32;4.30;;;20.90;91.80;;;;;;5041199;28;20482;-68
2022/08/27 03:15:27;;;;;;;6.13;4.13;;;20.90;91.80;;;;;;5038337;28;20088;-67
2022/08/27 03:20:43;;;;;;;11.65;4.18;;;20.90;91.80;;;;;;5038492;28;20045;-67
2022/08/27 03:23:10;;;;;;;11.43;4.18;;;20.90;91.80;;;;;;5036606;28;20036;-68
2022/08/27 03:25:36;;;;;;;9.10;4.63;;;20.90;91.80;;;;;;5045974;28;20025;-67
2022/08/27 03:28:02;;;;;;;6.55;4.28;;;20.90;91.80;;;;;;5024004;28;20026;-68
2022/08/27 03:30:27;;;;;;;6.82;4.40;;;20.90;91.80;;;;;;5040693;28;20036;-67
2022/08/27 03:32:53;;;;;;;6.35;4.05;;;20.90;92.20;;;;;;5040753;28;20025;-67
2022/08/27 03:35:20;;;;;;;6.65;4.35;;;20.80;91.80;;;;;;5042755;28;20090;-67
2022/08/27 03:37:46;;;;;;;6.25;4.03;;;20.90;91.80;;;;;;5040934;28;20021;-68
2022/08/27 03:40:13;;;;;;;8.82;4.82;;;20.90;91.80;;;;;;5042246;28;20045;-68
2022/08/27 03:42:40;;;;;;;8.32;4.72;;;20.80;91.80;;;;;;5045563;28;20029;-68
2022/08/27 03:45:07;;;;;;;9.95;4.15;;;20.80;91.80;;;;;;5044634;28;20044;-69
2022/08/27 03:47:33;;;;;;;5.97;4.00;;;20.80;91.90;;;;;;5041967;28;20021;-67
2022/08/27 03:49:59;;;;;;;7.93;4.15;;;20.90;91.90;;;;;;5041719;28;20025;-68
2022/08/27 03:52:26;;;;;;;6.28;4.22;;;20.90;91.90;;;;;;5041740;28;20382;-68
2022/08/27 03:54:52;;;;;;;5.78;4.20;;;20.80;91.90;;;;;;5044547;28;20018;-67
2022/08/27 03:57:18;;;;;;;6.18;4.07;;;20.90;91.90;;;;;;5043994;28;20063;-67
2022/08/27 03:59:44;;;;;;;5.85;3.92;;;20.80;91.90;;;;;;5024036;28;20472;-69
2022/08/27 04:02:10;;;;;;;6.90;4.70;;;20.80;91.90;;;;;;5040954;28;20546;-68
2022/08/27 04:04:36;;;;;;;7.30;3.92;;;20.80;91.90;;;;;;5021845;28;20022;-67
2022/08/27 04:07:02;;;;;;;7.10;3.85;;;20.80;91.90;;;;;;5027491;28;20025;-68
2022/08/27 04:09:28;;;;;;;8.88;4.20;;;20.80;91.90;;;;;;5029893;28;20479;-67
2022/08/27 04:11:54;;;;;;;6.93;4.47;;;20.80;91.90;;;;;;5024977;28;20079;-67
2022/08/27 04:14:19;;;;;;;11.30;4.53;;;20.80;91.90;;;;;;5024071;28;20475;-68
2022/08/27 04:16:46;;;;;;;8.57;3.83;;;20.80;91.90;;;;;;5020584;28;20104;-67
2022/08/27 04:19:12;;;;;;;8.25;4.20;;;20.80;91.90;;;;;;5028467;28;20037;-67
2022/08/27 04:21:38;;;;;;;11.60;4.47;;;20.80;92.00;;;;;;5021801;28;20033;-68
2022/08/27 04:24:04;;;;;;;6.78;3.88;;;20.80;92.00;;;;;;5026034;28;20021;-67
2022/08/27 04:26:29;;;;;;;9.52;4.40;;;20.80;92.00;;;;;;5023706;28;20052;-67
2022/08/27 04:28:57;;;;;;;6.68;4.30;;;20.80;92.00;;;;;;5024084;28;20047;-68
2022/08/27 04:31:22;;;;;;;5.60;4.32;;;20.80;92.00;;;;;;5023977;28;20935;-68
2022/08/27 04:33:48;;;;;;;10.98;4.70;;;20.80;92.00;;;;;;5016927;28;20103;-67
2022/08/27 04:36:16;;;;;;;7.25;3.95;;;20.80;92.00;;;;;;5030249;28;20375;-68
2022/08/27 04:38:42;;;;;;;5.80;3.78;;;20.80;92.00;;;;;;5021015;28;20034;-67
2022/08/27 04:41:18;;;;;;;6.25;3.72;;;20.80;92.00;;;;;;5019892;28;20022;-67
2022/08/27 04:43:44;;;;;;;5.65;3.63;;;20.80;92.00;;;;;;5023708;28;20032;-68
2022/08/27 04:46:10;;;;;;;8.05;4.28;;;20.80;92.00;;;;;;5023267;28;20548;-68
2022/08/27 04:48:35;;;;;;;7.85;3.88;;;20.80;92.00;;;;;;5022459;28;20021;-67
2022/08/27 04:51:01;;;;;;;11.38;4.07;;;20.80;92.10;;;;;;5026404;28;20433;-68
2022/08/27 04:53:27;;;;;;;14.90;5.03;;;20.80;92.00;;;;;;5022717;28;20099;-67
2022/08/27 04:55:55;;;;;;;9.65;5.22;;;20.80;92.10;;;;;;5023422;28;20041;-68
2022/08/27 04:58:22;;;;;;;9.50;4.88;;;20.80;92.10;;;;;;5023637;28;20661;-67
2022/08/27 05:00:53;;;;;;;11.15;5.45;;;20.80;92.10;;;;;;5024231;28;20025;-67
2022/08/27 05:03:25;;;;;;;9.93;4.72;;;20.80;92.10;;;;;;5033156;28;20048;-68
2022/08/27 05:05:53;;;;;;;9.68;5.85;;;20.80;92.10;;;;;;5040751;28;20033;-67
2022/08/27 05:08:19;;;;;;;13.07;5.68;;;20.80;92.10;;;;;;5038240;28;20068;-68
2022/08/27 05:10:49;;;;;;;9.25;5.18;;;20.80;92.10;;;;;;5042368;28;20063;-67
2022/08/27 05:13:17;;;;;;;11.90;5.57;;;20.80;92.10;;;;;;5043252;28;20474;-68
2022/08/27 05:15:44;;;;;;;11.30;5.97;;;20.80;92.10;;;;;;5040152;28;20025;-67
2022/08/27 05:18:10;;;;;;;16.65;6.38;;;20.80;92.10;;;;;;5039850;28;20037;-67
2022/08/27 05:20:47;;;;;;;12.13;5.93;;;20.80;92.10;;;;;;5038480;28;20242;-67
2022/08/27 05:23:15;;;;;;;11.68;6.80;;;20.80;92.10;;;;;;5038667;28;20128;-68
2022/08/27 05:25:44;;;;;;;11.63;6.60;;;20.80;92.10;;;;;;5037557;28;20025;-67
2022/08/27 05:28:12;;;;;;;9.68;5.95;;;20.80;92.10;;;;;;5033021;28;20478;-68
2022/08/27 05:30:40;;;;;;;14.30;6.22;;;20.80;92.10;;;;;;5041467;28;20028;-68
2022/08/27 05:33:07;;;;;;;15.35;6.68;;;20.80;92.10;;;;;;5039990;28;20382;-67
2022/08/27 05:35:42;;;;;;;16.98;6.90;;;20.80;92.10;;;;;;5039846;28;20037;-69
2022/08/27 05:38:09;;;;;;;15.38;8.25;;;20.80;92.10;;;;;;5043254;28;20060;-67
2022/08/27 05:40:35;;;;;;;18.13;8.93;;;20.80;92.10;;;;;;5039841;28;20140;-67
2022/08/27 05:43:01;;;;;;;20.65;10.13;;;20.80;92.10;;;;;;5043352;28;20025;-68
2022/08/27 05:45:27;;;;;;;18.30;10.50;;;20.80;92.10;;;;;;5042289;28;20017;-67
2022/08/27 05:47:53;;;;;;;19.85;8.38;;;20.80;92.10;;;;;;5039783;28;20128;-68
2022/08/27 05:50:19;;;;;;;16.48;9.18;;;20.80;92.10;;;;;;5033364;28;20558;-67
2022/08/27 05:52:44;;;;;;;13.23;7.22;;;20.90;92.10;;;;;;5040210;28;20025;-67
2022/08/27 05:55:11;;;;;;;18.10;8.65;;;20.80;92.10;;;;;;5038158;28;20526;-67
2022/08/27 05:57:37;;;;;;;14.93;9.00;;;20.80;92.10;;;;;;5039486;28;20108;-68
2022/08/27 06:02:49;;;;;;;14.82;8.02;;;20.80;92.10;;;;;;5039931;28;20110;-68
2022/08/27 06:05:15;;;;;;;16.80;7.68;;;20.90;92.10;;;;;;5038366;28;20474;-68
2022/08/27 06:07:40;;;;;;;19.23;9.80;;;20.90;92.10;;;;;;5047068;28;20025;-68
2022/08/27 06:10:06;;;;;;;15.32;8.77;;;20.90;92.10;;;;;;5035450;28;20032;-68
2022/08/27 06:12:33;;;;;;;22.70;10.93;;;20.90;92.10;;;;;;5042158;28;20029;-68
2022/08/27 06:14:59;;;;;;;22.33;10.68;;;20.90;92.10;;;;;;5038892;28;20025;-67
2022/08/27 06:17:25;;;;;;;21.58;10.05;;;20.90;92.10;;;;;;5038447;28;20029;-67
2022/08/27 06:19:50;;;;;;;19.67;9.75;;;20.90;92.10;;;;;;5041422;28;20099;-67
2022/08/27 06:22:16;;;;;;;20.08;10.57;;;20.90;92.10;;;;;;5042220;28;20436;-68
2022/08/27 06:24:42;;;;;;;20.58;11.45;;;21.00;92.10;;;;;;5039850;28;20131;-68
2022/08/27 06:27:10;;;;;;;19.75;10.55;;;20.90;92.10;;;;;;5038989;28;20041;-68
2022/08/27 06:29:36;;;;;;;19.92;11.07;;;20.90;92.10;;;;;;5039246;28;20028;-68
2022/08/27 06:32:02;;;;;;;23.30;11.25;;;20.90;92.10;;;;;;5041443;28;20421;-68
2022/08/27 06:34:27;;;;;;;23.55;12.45;;;20.90;92.10;;;;;;5041913;28;20077;-68
2022/08/27 06:36:53;;;;;;;26.35;12.13;;;20.90;92.10;;;;;;5039119;28;20103;-67
2022/08/27 06:39:19;;;;;;;20.08;11.27;;;20.90;92.10;;;;;;5037804;28;20064;-67
2022/08/27 06:41:45;;;;;;;27.08;12.75;;;20.90;92.10;;;;;;5039135;28;20021;-67
2022/08/27 06:44:12;;;;;;;26.45;12.27;;;20.90;92.10;;;;;;5041688;28;20104;-68
2022/08/27 06:46:38;;;;;;;22.48;13.02;;;20.90;92.10;;;;;;5034260;28;20026;-67
2022/08/27 06:49:05;;;;;;;24.35;11.50;;;20.90;92.10;;;;;;5033358;28;20021;-67
2022/08/27 06:51:56;;;;;;;21.80;12.40;;;20.90;92.10;;;;;;5033511;28;20501;-67
2022/08/27 06:54:21;;;;;;;29.60;14.05;;;20.90;92.10;;;;;;5036221;28;20024;-68
2022/08/27 06:56:48;;;;;;;27.90;13.50;;;20.90;92.10;;;;;;5051841;28;20413;-68
2022/08/27 06:59:16;;;;;;;22.70;13.52;;;20.90;92.10;;;;;;5050289;28;20052;-68
2022/08/27 07:01:46;;;;;;;34.78;15.15;;;21.00;92.20;;;;;;5050050;28;20035;-68
2022/08/27 07:04:16;;;;;;;30.27;14.23;;;21.00;92.20;;;;;;5049803;28;20060;-67
2022/08/27 07:06:41;;;;;;;34.20;15.70;;;21.00;92.10;;;;;;5049711;28;20025;-68
2022/08/27 07:09:08;;;;;;;27.58;15.30;;;21.00;92.10;;;;;;5048332;28;20074;-69
2022/08/27 07:11:34;;;;;;;29.60;15.23;;;21.00;92.20;;;;;;5049126;28;20028;-68
2022/08/27 07:14:01;;;;;;;32.83;15.00;;;21.00;92.20;;;;;;5049497;28;20479;-68
2022/08/27 07:16:27;;;;;;;33.90;16.63;;;21.00;92.10;;;;;;5049774;28;20036;-68
2022/08/27 07:18:55;;;;;;;36.72;16.05;;;21.00;92.20;;;;;;5049765;28;20112;-68
2022/08/27 07:21:22;;;;;;;31.08;16.45;;;21.00;92.20;;;;;;5049755;28;20017;-68
2022/08/27 07:23:50;;;;;;;31.55;15.80;;;21.00;92.10;;;;;;5049219;28;20552;-68
2022/08/27 07:26:18;;;;;;;30.98;17.85;;;21.00;92.20;;;;;;5030513;28;20030;-68
2022/08/27 07:28:45;;;;;;;32.80;16.13;;;21.00;92.10;;;;;;5029497;28;20168;-68
2022/08/27 07:31:14;;;;;;;35.70;17.27;;;21.00;92.10;;;;;;5029288;28;20112;-68
2022/08/27 07:33:40;;;;;;;31.30;15.07;;;21.00;92.20;;;;;;5029205;28;20026;-67
2022/08/27 07:36:06;;;;;;;33.88;17.20;;;21.00;92.20;;;;;;5028688;28;20033;-68
2022/08/27 07:38:33;;;;;;;30.20;15.43;;;21.00;92.20;;;;;;5028540;28;20116;-68
2022/08/27 07:46:31;;;;;;;39.58;15.88;;;21.00;92.20;;;;;;5069303;28;20063;-65
2022/08/27 07:48:57;;;;;;;25.92;14.20;;;21.00;92.20;;;;;;5069498;28;20470;-65
2022/08/27 07:51:25;;;;;;;41.90;16.80;;;21.00;92.20;;;;;;5068984;28;20043;-65
2022/08/27 07:53:53;;;;;;;36.15;16.75;;;21.00;92.20;;;;;;5069501;28;20115;-65
2022/08/27 07:56:20;;;;;;;30.83;16.25;;;21.00;92.20;;;;;;5067467;28;20044;-65
2022/08/27 07:58:46;;;;;;;29.60;15.02;;;21.10;92.30;;;;;;5069409;28;20134;-65
2022/08/27 08:01:12;;;;;;;31.70;15.57;;;21.00;92.30;;;;;;5069408;28;20048;-65
2022/08/27 08:03:38;;;;;;;37.95;16.48;;;21.00;92.20;;;;;;5069362;28;20489;-65
2022/08/27 08:06:10;;;;;;;39.20;18.48;;;21.10;92.30;;;;;;5067849;28;20024;-65
2022/08/27 08:08:39;;;;;;;30.15;16.45;;;21.10;92.30;;;;;;5069223;28;20020;-65
2022/08/27 08:11:06;;;;;;;29.67;15.85;;;21.10;92.30;;;;;;5068474;28;20580;-66
2022/08/27 08:13:32;;;;;;;33.28;15.57;;;21.10;92.30;;;;;;5069156;28;20027;-65
2022/08/27 08:15:58;;;;;;;40.53;15.27;;;21.10;92.30;;;;;;5069034;28;20025;-65
2022/08/27 08:18:24;;;;;;;29.65;16.02;;;21.10;92.30;;;;;;5069281;28;20055;-65
2022/08/27 08:20:50;;;;;;;32.45;14.95;;;21.10;92.30;;;;;;5070577;28;20029;-66
2022/08/27 08:23:15;;;;;;;32.17;16.83;;;21.10;92.30;;;;;;5055114;28;20032;-65
2022/08/27 08:25:41;;;;;;;28.48;15.07;;;21.10;92.30;;;;;;5072702;28;20024;-65
2022/08/27 08:28:08;;;;;;;34.53;18.55;;;21.10;92.30;;;;;;5072374;28;20028;-65
2022/08/27 08:30:34;;;;;;;30.33;17.17;;;21.10;92.30;;;;;;5072714;28;20028;-65
2022/08/27 08:32:59;;;;;;;29.17;14.77;;;21.10;92.20;;;;;;5072605;28;20075;-65
2022/08/27 08:35:25;;;;;;;28.77;15.38;;;21.10;92.30;;;;;;5071607;28;20055;-66
2022/08/27 08:37:50;;;;;;;31.67;15.93;;;21.10;92.20;;;;;;5071944;28;20024;-65
2022/08/27 08:40:43;;;;;;;31.60;15.05;;;21.10;92.20;;;;;;5072549;28;20048;-65
2022/08/27 08:43:22;;;;;;;31.70;14.30;;;21.10;92.20;;;;;;5071160;28;20103;-65
2022/08/27 08:45:49;;;;;;;32.60;15.03;;;21.20;92.20;;;;;;5071838;28;20028;-65
2022/08/27 08:48:19;;;;;;;28.70;16.00;;;21.20;92.20;;;;;;5072407;28;20538;-65
2022/08/27 08:51:11;;;;;;;34.45;15.52;;;21.20;92.30;;;;;;5072622;28;20024;-65
2022/08/27 08:53:45;;;;;;;27.60;15.75;;;21.20;92.20;;;;;;5072486;28;20067;-65
2022/08/27 08:56:23;;;;;;;30.90;16.90;;;21.20;92.20;;;;;;5070891;28;20103;-66
2022/08/27 08:58:56;;;;;;;29.10;16.00;;;21.10;92.20;;;;;;5072151;28;20043;-65
2022/08/27 09:01:23;;;;;;;27.38;15.43;;;21.20;92.20;;;;;;5072412;28;20024;-65
2022/08/27 09:04:01;;;;;;;34.80;17.35;;;21.20;92.20;;;;;;5072351;28;20497;-65
2022/08/27 09:06:53;;;;;;;31.17;17.67;;;21.20;92.20;;;;;;5072121;28;20032;-65
2022/08/27 09:09:22;;;;;;;33.65;17.27;;;21.20;92.20;;;;;;5054124;28;20024;-65
2022/08/27 09:12:17;;;;;;;36.75;16.92;;;21.20;92.20;;;;;;5071190;28;20107;-65
2022/08/27 09:15:09;;;;;;;32.65;17.27;;;21.20;92.20;;;;;;5063197;28;20143;-66
2022/08/27 09:17:35;;;;;;;28.30;16.02;;;21.20;92.30;;;;;;5072123;28;20032;-65
2022/08/27 09:20:03;;;;;;;34.45;16.77;;;21.20;92.30;;;;;;5071893;28;20028;-65
2022/08/27 09:22:56;;;;;;;28.48;16.55;;;21.20;92.20;;;;;;5071859;28;20032;-65
2022/08/27 09:25:32;;;;;;;29.00;17.40;;;21.20;92.30;;;;;;5070858;28;20646;-65
2022/08/27 09:28:02;;;;;;;29.95;16.52;;;21.20;92.30;;;;;;5058865;28;20067;-65
2022/08/27 09:30:40;;;;;;;27.67;14.57;;;21.20;92.30;;;;;;5051407;28;20021;-65
2022/08/27 09:33:06;;;;;;;29.58;15.43;;;21.20;92.30;;;;;;5050765;28;20033;-65
2022/08/27 09:35:44;;;;;;;28.23;15.50;;;21.20;92.30;;;;;;5051289;28;20040;-65
2022/08/27 09:38:21;;;;;;;26.02;15.15;;;21.20;92.30;;;;;;5051322;28;20017;-65
2022/08/27 09:40:51;;;;;;;27.33;15.63;;;21.20;92.30;;;;;;5052071;28;20025;-64
2022/08/27 09:43:22;;;;;;;29.60;14.85;;;21.20;92.40;;;;;;5064218;28;20040;-64
2022/08/27 09:45:51;;;;;;;29.23;15.93;;;21.20;92.50;;;;;;5070918;28;20036;-64
2022/08/27 09:48:20;;;;;;;29.33;15.07;;;21.20;92.60;;;;;;5071514;28;20027;-64
2022/08/27 09:50:49;;;;;;;26.10;13.93;;;21.20;92.70;;;;;;5071126;28;20115;-64
2022/08/27 09:53:22;;;;;;;25.83;15.50;;;21.20;92.80;;;;;;5071254;28;20452;-64
2022/08/27 09:55:53;;;;;;;30.80;15.55;;;21.20;92.90;;;;;;5070456;28;20546;-64
2022/08/27 09:58:41;;;;;;;29.42;15.40;;;21.20;92.90;;;;;;5057254;28;20040;-65
2022/08/27 10:01:18;;;;;;;34.65;15.88;;;21.20;92.90;;;;;;5001935;28;20067;-64
2022/08/27 10:03:44;;;;;;;23.30;14.82;;;21.20;92.90;;;;;;5051085;28;20065;-64
2022/08/27 10:06:10;;;;;;;32.15;16.30;;;21.10;93.20;;;;;;5050153;28;20025;-64
2022/08/27 10:08:44;;;;;;;26.08;15.23;;;21.20;93.00;;;;;;5050811;28;20035;-64
2022/08/27 10:11:20;;;;;;;38.55;17.08;;;21.20;92.90;;;;;;5033017;28;20025;-65
2022/08/27 10:14:11;;;;;;;28.88;14.73;;;21.20;92.90;;;;;;5065781;28;20064;-64
2022/08/27 10:17:04;;;;;;;28.35;14.80;;;21.20;92.90;;;;;;5070167;28;20559;-64
2022/08/27 10:19:47;;;;;;;27.77;14.93;;;21.20;92.90;;;;;;5070466;28;20044;-65
2022/08/27 10:22:30;;;;;;;33.58;15.98;;;21.20;93.30;;;;;;5070732;28;20481;-64
2022/08/27 10:25:10;;;;;;;27.42;14.65;;;21.20;93.00;;;;;;5070332;28;20032;-63
2022/08/27 10:27:50;;;;;;;29.42;14.75;;;21.20;93.00;;;;;;5069621;28;20028;-64
2022/08/27 10:30:19;;;;;;;26.60;13.15;;;21.20;93.00;;;;;;5070282;28;20032;-64
2022/08/27 10:32:54;;;;;;;24.05;14.23;;;21.20;93.10;;;;;;5070433;28;20036;-64
2022/08/27 10:35:21;;;;;;;27.10;14.38;;;21.20;93.10;;;;;;5069856;28;20483;-65
2022/08/27 10:38:07;;;;;;;29.80;16.17;;;21.20;93.20;;;;;;5070202;28;20393;-64
2022/08/27 10:40:42;;;;;;;22.83;13.57;;;21.20;93.20;;;;;;5069866;28;20042;-65
2022/08/27 10:43:13;;;;;;;26.75;13.80;;;21.20;93.40;;;;;;5068833;28;20028;-65
2022/08/27 10:46:06;;;;;;;19.65;11.38;;;21.20;93.50;;;;;;5069426;28;20035;-64
2022/08/27 10:48:50;;;;;;;23.88;11.93;;;21.20;93.50;;;;;;5070604;28;20029;-64
2022/08/27 10:51:24;;;;;;;24.75;12.30;;;21.20;93.50;;;;;;5070310;28;20079;-64
2022/08/27 10:54:09;;;;;;;21.33;13.02;;;21.30;93.60;;;;;;5069954;28;20474;-64
2022/08/27 10:56:53;;;;;;;20.70;11.88;;;21.20;93.70;;;;;;5069848;28;20094;-64
2022/08/27 10:59:22;;;;;;;21.38;12.57;;;21.30;93.70;;;;;;5068454;28;20343;-64
2022/08/27 11:02:11;;;;;;;23.35;12.57;;;21.20;93.80;;;;;;5070102;28;20115;-64
2022/08/27 11:04:50;;;;;;;27.73;13.05;;;21.20;93.80;;;;;;5070592;28;20479;-64
2022/08/27 11:07:26;;;;;;;19.98;11.55;;;21.30;93.90;;;;;;5069670;28;20481;-64
2022/08/27 11:10:09;;;;;;;24.05;14.25;;;21.20;93.90;;;;;;5070094;28;20043;-64
2022/08/27 11:12:40;;;;;;;22.70;12.73;;;21.20;94.00;;;;;;5068764;28;20016;-65
2022/08/27 11:15:28;;;;;;;22.65;12.93;;;21.20;94.00;;;;;;5069895;28;20025;-64
2022/08/27 11:18:20;;;;;;;23.23;12.90;;;21.20;94.00;;;;;;5070118;28;20389;-65
2022/08/27 11:21:03;;;;;;;23.83;12.52;;;21.20;94.00;;;;;;5069932;28;20037;-64
2022/08/27 11:23:32;;;;;;;25.10;12.45;;;21.20;94.10;;;;;;5069549;28;20029;-64
2022/08/27 11:26:03;;;;;;;20.98;13.50;;;21.20;94.10;;;;;;5069518;28;20040;-64
2022/08/27 11:28:40;;;;;;;26.25;14.23;;;21.20;94.10;;;;;;5069168;28;20107;-64
2022/08/27 11:31:18;;;;;;;27.13;15.48;;;21.20;94.10;;;;;;5069260;28;20431;-65
2022/08/27 11:34:09;;;;;;;26.70;14.18;;;21.20;94.10;;;;;;5069794;28;20016;-64
2022/08/27 11:37:02;;;;;;;20.88;10.77;;;21.20;94.10;;;;;;5030173;28;20064;-65
2022/08/27 11:39:36;;;;;;;17.13;7.97;;;21.20;94.10;;;;;;5070085;28;20029;-64
2022/08/27 11:42:22;;;;;;;12.02;7.82;;;21.20;94.20;;;;;;5069446;28;20162;-65
2022/08/27 11:44:52;;;;;;;9.77;4.82;;;21.20;94.30;;;;;;5033930;28;20036;-64
2022/08/27 11:47:21;;;;;;;6.63;4.03;;;21.10;94.20;;;;;;5049029;28;20041;-64
2022/08/27 11:50:00;;;;;;;11.75;3.65;;;21.10;94.10;;;;;;5049668;28;20382;-64
2022/08/27 11:52:33;;;;;;;7.57;3.30;;;21.10;93.90;;;;;;5049656;28;20055;-64
2022/08/27 11:55:23;;;;;;;5.35;3.25;;;21.00;93.80;;;;;;5049822;28;20497;-65
2022/08/27 11:58:01;;;;;;;8.27;3.55;;;21.00;93.70;;;;;;5053677;28;20033;-66
2022/08/27 12:00:32;;;;;;;5.63;3.25;;;21.00;93.60;;;;;;5072945;28;20040;-64
2022/08/27 12:03:10;;;;;;;6.05;3.75;;;21.00;93.50;;;;;;5073132;28;20103;-64
2022/08/27 12:05:44;;;;;;;5.88;3.22;;;21.00;93.50;;;;;;5073150;28;20017;-64
2022/08/27 12:08:21;;;;;;;8.25;3.35;;;21.00;93.50;;;;;;5073499;28;20055;-65
2022/08/27 12:11:05;;;;;;;8.77;3.95;;;21.00;93.50;;;;;;5073124;28;20051;-64
2022/08/27 12:13:40;;;;;;;8.15;3.97;;;21.00;93.60;;;;;;5071836;28;20024;-64
2022/08/27 12:16:57;;;;;;;5.80;3.22;;;20.90;93.60;;;;;;5072015;28;20076;-65
2022/08/27 12:19:43;;;;;;;5.18;3.40;;;20.90;93.60;;;;;;5037978;28;20597;-64
2022/08/27 12:23:38;;;;;;;6.28;3.35;;;20.90;93.60;;;;;;5072761;28;20059;-64
2022/08/27 12:25:22;;;;;;;7.25;3.30;;;20.90;93.60;;;;;;5072346;28;20032;-64
2022/08/27 12:28:04;;;;;;;5.32;3.30;;;20.90;93.60;;;;;;5072851;28;20654;-64
2022/08/27 12:30:39;;;;;;;6.63;3.90;;;20.90;93.60;;;;;;5072093;28;20029;-64
2022/08/27 12:33:30;;;;;;;7.28;3.60;;;20.90;93.60;;;;;;5072548;28;20024;-64
2022/08/27 12:36:03;;;;;;;5.38;3.13;;;20.90;93.70;;;;;;5072516;28;20020;-64
2022/08/27 12:38:32;;;;;;;5.70;2.83;;;20.90;93.80;;;;;;5072738;28;20056;-64
2022/08/27 12:41:07;;;;;;;4.68;3.15;;;20.90;93.80;;;;;;5072694;28;20276;-64
2022/08/27 12:43:37;;;;;;;7.70;3.13;;;20.90;93.80;;;;;;5071278;28;20421;-64
2022/08/27 12:46:07;;;;;;;4.47;3.42;;;20.90;94.20;;;;;;5071665;28;20036;-65
2022/08/27 12:48:40;;;;;;;4.53;3.13;;;20.90;93.90;;;;;;5072523;28;20509;-63
2022/08/27 12:51:20;;;;;;;5.15;3.10;;;20.90;93.90;;;;;;5072369;28;20326;-63
2022/08/27 12:54:12;;;;;;;3.58;2.40;;;20.90;93.90;;;;;;5071897;28;20112;-64
2022/08/27 12:57:19;;;;;;;9.43;3.05;;;20.90;93.90;;;;;;5071949;28;20028;-63
2022/08/27 13:00:08;;;;;;;7.25;3.20;;;20.90;93.90;;;;;;5040197;28;20122;-63
2022/08/27 13:02:52;;;;;;;3.75;2.72;;;20.90;94.10;;;;;;5072045;28;20033;-63
2022/08/27 13:05:20;;;;;;;4.90;3.25;;;20.90;94.10;;;;;;5071203;28;20054;-64
2022/08/27 13:07:47;;;;;;;4.47;2.90;;;20.90;94.20;;;;;;5072568;28;20031;-64
2022/08/27 13:10:31;;;;;;;5.82;2.88;;;20.90;94.10;;;;;;5071921;28;20031;-64